createdAt,value
2016-04-14T00:00:13.452Z,9.94
2016-04-14T00:00:57.236Z,9.94
2016-04-14T00:01:57.425Z,9.91
2016-04-14T00:03:03.710Z,9.87
2016-04-14T00:03:57.462Z,9.9
2016-04-14T00:04:57.605Z,9.9
2016-04-14T00:06:10.249Z,9.9
2016-04-14T00:06:57.517Z,9.88
2016-04-14T00:08:16.754Z,9.97
2016-04-14T00:09:03.849Z,9.85
2016-04-14T00:10:54.557Z,9.9
2016-04-14T00:11:19.916Z,9.92
2016-04-14T00:12:19.888Z,9.87
2016-04-14T00:13:26.172Z,9.88
2016-04-14T00:14:32.643Z,9.9
2016-04-14T00:15:19.927Z,9.88
2016-04-14T00:16:20.071Z,9.85
2016-04-14T00:17:32.682Z,9.8
2016-04-14T00:18:20.045Z,9.84
2016-04-14T00:19:20.001Z,9.84
2016-04-14T00:20:20.019Z,9.84
2016-04-14T00:21:32.787Z,9.8
2016-04-14T00:22:26.352Z,9.84
2016-04-14T00:23:20.074Z,9.8
2016-04-14T00:24:20.092Z,9.81
2016-04-14T00:25:20.532Z,9.81
2016-04-14T00:26:20.737Z,9.81
2016-04-14T00:27:20.148Z,9.8
2016-04-14T00:28:20.150Z,9.81
2016-04-14T00:29:20.292Z,9.76
2016-04-14T00:30:26.468Z,9.84
2016-04-14T00:31:20.236Z,9.81
2016-04-14T00:32:20.238Z,9.81
2016-04-14T00:33:20.476Z,9.74
2016-04-14T00:34:26.713Z,9.76
2016-04-14T00:35:26.559Z,9.76
2016-04-14T00:36:39.569Z,9.74
2016-04-14T00:37:20.352Z,9.77
2016-04-14T00:38:20.340Z,9.69
2016-04-14T00:39:20.374Z,9.7
2016-04-14T00:40:20.438Z,9.76
2016-04-14T00:41:26.676Z,9.59
2016-04-14T00:42:20.429Z,9.62
2016-04-14T00:43:39.634Z,9.63
2016-04-14T00:44:20.449Z,9.63
2016-04-14T00:45:51.768Z,9.42
2016-04-14T00:46:20.518Z,9.4
2016-04-14T00:47:20.505Z,9.49
2016-04-14T00:48:20.539Z,9.44
2016-04-14T00:49:33.276Z,9.4
2016-04-14T00:50:20.623Z,9.37
2016-04-14T00:51:39.781Z,9.3
2016-04-14T00:52:22.033Z,9.29
2016-04-14T00:53:20.615Z,9.29
2016-04-14T00:54:20.633Z,9.26
2016-04-14T00:55:26.964Z,9.26
2016-04-14T00:56:26.935Z,9.29
2016-04-14T00:57:20.750Z,9.3
2016-04-14T00:58:33.456Z,9.33
2016-04-14T00:59:20.943Z,9.31
2016-04-14T01:00:39.992Z,9.34
2016-04-14T01:01:36.589Z,9.39
2016-04-14T01:02:23.904Z,9.44
2016-04-14T01:03:42.469Z,9.47
2016-04-14T01:04:36.769Z,9.54
2016-04-14T01:05:23.943Z,9.45
2016-04-14T01:06:49.636Z,9.45
2016-04-14T01:07:33.511Z,9.48
2016-04-14T01:08:59.282Z,9.47
2016-04-14T01:10:43.801Z,9.45
2016-04-14T01:11:37.569Z,9.51
2016-04-14T01:12:37.649Z,9.47
2016-04-14T01:13:39.012Z,9.48
2016-04-14T01:14:37.609Z,9.49
2016-04-14T01:15:56.832Z,9.52
2016-04-14T01:16:37.676Z,9.51
2016-04-14T01:18:03.357Z,9.45
2016-04-14T01:18:37.441Z,9.59
2016-04-14T01:19:37.694Z,9.63
2016-04-14T01:20:37.744Z,9.55
2016-04-14T01:21:39.153Z,9.55
2016-04-14T01:22:37.749Z,9.47
2016-04-14T01:23:50.567Z,9.45
2016-04-14T01:24:44.052Z,9.51
2016-04-14T01:25:50.557Z,9.47
2016-04-14T01:26:37.838Z,9.4
2016-04-14T01:27:37.903Z,9.44
2016-04-14T01:28:38.468Z,9.47
2016-04-14T01:29:50.614Z,9.45
2016-04-14T01:30:37.896Z,9.42
2016-04-14T01:31:57.136Z,9.52
2016-04-14T01:32:40.995Z,9.51
2016-04-14T01:33:40.997Z,9.54
2016-04-14T01:34:41.110Z,9.55
2016-04-14T01:35:41.018Z,9.62
2016-04-14T01:36:41.146Z,9.58
2016-04-14T01:37:41.071Z,9.63
2016-04-14T01:38:53.826Z,9.59
2016-04-14T01:39:41.092Z,9.63
2016-04-14T01:40:41.735Z,9.56
2016-04-14T01:41:53.881Z,9.63
2016-04-14T01:42:41.162Z,9.62
2016-04-14T01:44:00.371Z,9.58
2016-04-14T01:44:50.529Z,9.59
2016-04-14T01:45:44.342Z,9.59
2016-04-14T01:46:44.876Z,9.63
2016-04-14T01:47:44.300Z,9.59
2016-04-14T01:48:44.287Z,9.62
2016-04-14T01:49:44.322Z,9.58
2016-04-14T01:50:44.340Z,9.69
2016-04-14T01:51:44.374Z,9.59
2016-04-14T01:52:44.392Z,9.66
2016-04-14T01:53:50.647Z,9.62
2016-04-14T01:54:50.931Z,9.62
2016-04-14T01:55:57.168Z,9.54
2016-04-14T01:56:44.558Z,9.67
2016-04-14T01:57:44.469Z,9.55
2016-04-14T01:58:44.502Z,9.7
2016-04-14T01:59:50.774Z,9.59
2016-04-14T02:00:44.570Z,9.73
2016-04-14T02:01:57.279Z,9.69
2016-04-14T02:02:57.297Z,9.66
2016-04-14T02:04:03.768Z,9.63
2016-04-14T02:04:44.612Z,9.66
2016-04-14T02:05:44.630Z,9.62
2016-04-14T02:06:50.901Z,9.62
2016-04-14T02:07:44.651Z,9.58
2016-04-14T02:08:57.423Z,9.55
2016-04-14T02:09:50.956Z,9.62
2016-04-14T02:11:04.131Z,9.56
2016-04-14T02:11:44.740Z,9.59
2016-04-14T02:12:44.742Z,9.58
2016-04-14T02:13:48.745Z,9.59
2016-04-14T02:14:48.670Z,9.62
2016-04-14T02:15:54.942Z,9.58
2016-04-14T02:16:48.723Z,9.58
2016-04-14T02:18:00.822Z,9.56
2016-04-14T02:18:48.743Z,9.51
2016-04-14T02:19:48.777Z,9.58
2016-04-14T02:20:50.205Z,9.45
2016-04-14T02:21:48.798Z,9.51
2016-04-14T02:23:01.664Z,9.54
2016-04-14T02:24:01.572Z,9.45
2016-04-14T02:25:08.044Z,9.47
2016-04-14T02:25:48.872Z,9.48
2016-04-14T02:26:48.983Z,9.48
2016-04-14T02:27:48.892Z,9.48
2016-04-14T02:29:01.664Z,9.51
2016-04-14T02:29:55.338Z,9.4
2016-04-14T02:30:49.010Z,9.42
2016-04-14T02:32:01.547Z,9.4
2016-04-14T02:33:01.737Z,9.47
2016-04-14T02:33:49.002Z,9.4
2016-04-14T02:35:08.227Z,9.36
2016-04-14T02:35:50.495Z,9.39
2016-04-14T02:36:49.073Z,9.42
2016-04-14T02:38:08.282Z,9.39
2016-04-14T02:38:49.126Z,9.44
2016-04-14T02:40:14.787Z,9.34
2016-04-14T02:40:49.115Z,9.37
2016-04-14T02:42:20.448Z,9.34
2016-04-14T02:42:55.435Z,9.34
2016-04-14T02:43:49.185Z,9.37
2016-04-14T02:45:01.940Z,9.33
2016-04-14T02:45:49.831Z,9.33
2016-04-14T02:47:01.962Z,9.3
2016-04-14T02:47:49.275Z,9.31
2016-04-14T02:49:09.092Z,9.3
2016-04-14T02:49:52.970Z,9.3
2016-04-14T02:51:18.488Z,9.31
2016-04-14T02:52:02.367Z,9.3
2016-04-14T02:53:28.056Z,9.27
2016-04-14T02:54:15.184Z,9.3
2016-04-14T02:55:02.421Z,9.29
2016-04-14T02:56:21.767Z,9.24
2016-04-14T02:57:02.458Z,9.29
2016-04-14T02:58:33.788Z,9.33
2016-04-14T02:59:12.057Z,9.26
2016-04-14T03:00:37.763Z,9.31
2016-04-14T03:01:18.984Z,9.3
2016-04-14T03:02:12.111Z,9.33
2016-04-14T03:03:12.146Z,9.3
2016-04-14T03:04:12.163Z,9.3
2016-04-14T03:05:13.574Z,9.3
2016-04-14T03:06:24.919Z,9.31
2016-04-14T03:07:24.937Z,9.29
2016-04-14T03:08:31.457Z,9.26
2016-04-14T03:09:37.927Z,9.27
2016-04-14T03:10:12.258Z,9.36
2016-04-14T03:11:43.635Z,9.33
2016-04-14T03:12:12.295Z,9.42
2016-04-14T03:13:12.359Z,9.29
2016-04-14T03:14:12.332Z,9.31
2016-04-14T03:15:25.193Z,9.29
2016-04-14T03:16:12.367Z,9.29
2016-04-14T03:17:31.590Z,9.37
2016-04-14T03:18:12.404Z,9.31
2016-04-14T03:19:12.423Z,9.31
2016-04-14T03:20:18.910Z,9.27
2016-04-14T03:21:19.412Z,9.31
2016-04-14T03:22:31.728Z,9.29
2016-04-14T03:23:31.684Z,9.31
2016-04-14T03:24:12.530Z,9.31
2016-04-14T03:25:38.345Z,9.33
2016-04-14T03:26:12.755Z,9.37
2016-04-14T03:27:12.569Z,9.33
2016-04-14T03:28:12.636Z,9.29
2016-04-14T03:29:25.341Z,9.3
2016-04-14T03:30:12.641Z,9.33
2016-04-14T03:31:31.877Z,9.27
2016-04-14T03:32:15.739Z,9.29
2016-04-14T03:33:41.539Z,9.31
2016-04-14T03:34:19.791Z,9.31
2016-04-14T03:35:45.529Z,9.27
2016-04-14T03:36:23.796Z,9.4
2016-04-14T03:37:55.130Z,9.31
2016-04-14T03:38:33.365Z,9.45
2016-04-14T03:40:46.198Z,9.34
2016-04-14T03:41:33.420Z,9.29
2016-04-14T03:42:52.643Z,9.29
2016-04-14T03:43:33.456Z,9.29
2016-04-14T03:44:59.196Z,9.31
2016-04-14T03:45:43.134Z,9.34
2016-04-14T03:47:08.796Z,9.3
2016-04-14T03:47:52.845Z,9.36
2016-04-14T03:49:18.722Z,9.33
2016-04-14T03:50:28.288Z,9.3
2016-04-14T03:51:28.290Z,9.36
2016-04-14T03:52:35.356Z,9.31
2016-04-14T03:53:34.061Z,9.31
2016-04-14T03:54:02.673Z,9.29
2016-04-14T03:55:02.692Z,9.24
2016-04-14T03:56:02.695Z,9.33
2016-04-14T03:57:02.838Z,9.29
2016-04-14T03:58:02.730Z,9.34
2016-04-14T03:59:03.014Z,9.29
2016-04-14T04:00:02.767Z,9.29
2016-04-14T04:01:09.036Z,9.26
2016-04-14T04:02:15.538Z,9.29
2016-04-14T04:03:15.541Z,9.29
2016-04-14T04:04:28.810Z,9.31
2016-04-14T04:05:22.093Z,9.27
2016-04-14T04:06:34.190Z,9.3
2016-04-14T04:07:28.349Z,9.29
2016-04-14T04:08:43.554Z,9.3
2016-04-14T04:09:18.621Z,9.31
2016-04-14T04:10:12.263Z,9.26
2016-04-14T04:11:37.953Z,9.27
2016-04-14T04:12:21.816Z,9.39
2016-04-14T04:13:41.084Z,9.29
2016-04-14T04:14:28.009Z,9.39
2016-04-14T04:15:44.183Z,9.39
2016-04-14T04:16:44.185Z,9.27
2016-04-14T04:17:25.017Z,9.39
2016-04-14T04:18:25.035Z,9.45
2016-04-14T04:19:25.068Z,9.37
2016-04-14T04:20:25.181Z,9.44
2016-04-14T04:21:26.512Z,9.42
2016-04-14T04:22:25.124Z,9.45
2016-04-14T04:23:25.126Z,9.48
2016-04-14T04:24:25.192Z,9.49
2016-04-14T04:25:37.897Z,9.44
2016-04-14T04:26:31.431Z,9.45
2016-04-14T04:27:25.215Z,9.39
2016-04-14T04:28:44.406Z,9.47
2016-04-14T04:29:25.236Z,9.37
2016-04-14T04:30:25.238Z,9.49
2016-04-14T04:31:25.258Z,9.52
2016-04-14T04:32:25.307Z,9.45
2016-04-14T04:33:25.294Z,9.49
2016-04-14T04:34:31.594Z,9.52
2016-04-14T04:35:25.361Z,9.48
2016-04-14T04:36:25.364Z,9.45
2016-04-14T04:37:25.383Z,9.47
2016-04-14T04:38:38.119Z,9.51
2016-04-14T04:39:25.466Z,9.55
2016-04-14T04:40:25.421Z,9.55
2016-04-14T04:41:26.034Z,9.54
2016-04-14T04:42:31.724Z,9.58
2016-04-14T04:43:38.243Z,9.52
2016-04-14T04:44:38.245Z,9.62
2016-04-14T04:45:44.748Z,9.59
2016-04-14T04:46:44.720Z,9.66
2016-04-14T04:47:25.550Z,9.58
2016-04-14T04:48:25.568Z,9.63
2016-04-14T04:49:25.603Z,9.58
2016-04-14T04:50:26.214Z,9.64
2016-04-14T04:51:25.623Z,9.56
2016-04-14T04:52:25.657Z,9.56
2016-04-14T04:53:25.660Z,9.58
2016-04-14T04:54:25.694Z,9.55
2016-04-14T04:55:25.697Z,9.55
2016-04-14T04:56:38.481Z,9.73
2016-04-14T04:57:25.592Z,9.67
2016-04-14T04:58:51.439Z,9.67
2016-04-14T04:59:32.082Z,9.72
2016-04-14T05:00:25.803Z,9.7
2016-04-14T05:01:25.901Z,9.76
2016-04-14T05:02:25.825Z,9.67
2016-04-14T05:03:25.858Z,9.73
2016-04-14T05:04:26.440Z,9.72
2016-04-14T05:05:25.896Z,9.69
2016-04-14T05:06:25.914Z,9.69
2016-04-14T05:07:32.182Z,9.67
2016-04-14T05:08:38.513Z,9.7
2016-04-14T05:09:25.952Z,9.69
2016-04-14T05:11:22.958Z,9.74
2016-04-14T05:12:01.196Z,9.69
2016-04-14T05:12:36.008Z,9.64
2016-04-14T05:14:06.947Z,9.72
2016-04-14T05:14:50.822Z,9.69
2016-04-14T05:15:50.901Z,9.81
2016-04-14T05:16:50.948Z,9.77
2016-04-14T05:17:51.058Z,9.74
2016-04-14T05:18:51.064Z,9.81
2016-04-14T05:19:57.383Z,9.82
2016-04-14T05:20:57.511Z,9.88
2016-04-14T05:21:57.702Z,9.95
2016-04-14T05:22:51.202Z,9.97
2016-04-14T05:24:10.445Z,9.92
2016-04-14T05:25:10.453Z,9.94
2016-04-14T05:26:22.586Z,9.95
2016-04-14T05:27:10.704Z,10.02
2016-04-14T05:29:32.030Z,10
2016-04-14T05:30:25.800Z,10.07
2016-04-14T05:32:42.123Z,10.17
2016-04-14T05:33:42.158Z,10.15
2016-04-14T05:36:03.654Z,10.41
2016-04-14T05:36:57.454Z,10.31
2016-04-14T05:38:04.035Z,10.39
2016-04-14T05:39:03.694Z,10.43
2016-04-14T05:39:58.869Z,10.28
2016-04-14T05:41:10.246Z,10.41
2016-04-14T05:41:57.499Z,10.45
2016-04-14T05:43:16.735Z,10.27
2016-04-14T05:43:57.723Z,10.41
2016-04-14T05:45:23.210Z,10.43
2016-04-14T05:46:10.307Z,10.36
2016-04-14T05:47:28.888Z,10.38
2016-04-14T05:47:57.671Z,10.24
2016-04-14T05:48:57.627Z,10.06
2016-04-14T05:49:57.661Z,9.95
2016-04-14T05:51:03.960Z,9.8
2016-04-14T05:52:03.948Z,9.87
2016-04-14T05:53:16.904Z,9.9
2016-04-14T05:54:16.921Z,9.9
2016-04-14T05:55:16.924Z,9.94
2016-04-14T05:56:23.426Z,9.95
2016-04-14T05:57:24.883Z,9.95
2016-04-14T05:58:34.589Z,9.92
2016-04-14T05:59:03.154Z,9.97
2016-04-14T06:00:03.188Z,9.84
2016-04-14T06:01:15.925Z,9.92
2016-04-14T06:02:03.912Z,9.99
2016-04-14T06:03:28.759Z,9.91
2016-04-14T06:04:04.714Z,9.91
2016-04-14T06:05:03.280Z,10
2016-04-14T06:06:03.282Z,10.06
2016-04-14T06:07:16.035Z,10.1
2016-04-14T06:08:16.052Z,10.17
2016-04-14T06:10:00.324Z,10.3
2016-04-14T06:11:03.388Z,10.36
2016-04-14T06:12:03.423Z,10.38
2016-04-14T06:12:38.391Z,10.31
2016-04-14T06:14:47.349Z,10.36
2016-04-14T06:15:47.399Z,10.34
2016-04-14T06:16:47.980Z,10.41
2016-04-14T06:18:00.142Z,10.51
2016-04-14T06:19:00.146Z,10.53
2016-04-14T06:20:13.116Z,10.42
2016-04-14T06:20:47.460Z,10.33
2016-04-14T06:22:18.778Z,10.34
2016-04-14T06:22:50.543Z,10.42
2016-04-14T06:24:53.174Z,10.51
2016-04-14T06:25:07.271Z,10.64
2016-04-14T06:26:07.165Z,10.75
2016-04-14T06:27:07.292Z,10.59
2016-04-14T06:28:14.076Z,10.61
2016-04-14T06:29:07.220Z,10.65
2016-04-14T06:30:26.456Z,10.72
2016-04-14T06:31:07.256Z,10.86
2016-04-14T06:32:38.586Z,11.25
2016-04-14T06:33:48.136Z,11.35
2016-04-14T06:34:22.482Z,11.22
2016-04-14T06:35:22.516Z,11.27
2016-04-14T06:36:35.253Z,11.58
2016-04-14T06:37:22.536Z,11.7
2016-04-14T06:38:41.946Z,11.67
2016-04-14T06:39:28.886Z,11.78
2016-04-14T06:40:45.061Z,12.03
2016-04-14T06:41:54.785Z,12.05
2016-04-14T06:42:51.394Z,12.68
2016-04-14T06:43:38.678Z,13.39
2016-04-14T06:44:38.712Z,14.45
2016-04-14T06:45:45.012Z,15.14
2016-04-14T06:46:38.921Z,15.8
2016-04-14T06:47:57.973Z,16.09
2016-04-14T06:48:38.785Z,15.94
2016-04-14T06:50:35.775Z,15.44
2016-04-14T06:51:04.293Z,15.37
2016-04-14T06:52:14.234Z,15.33
2016-04-14T06:53:10.846Z,15.39
2016-04-14T06:53:58.146Z,15.25
2016-04-14T06:56:39.057Z,15.15
2016-04-14T06:57:13.373Z,15.25
2016-04-14T06:59:28.566Z,15.9
2016-04-14T07:00:28.568Z,15.76
2016-04-14T07:01:41.321Z,16.31
2016-04-14T07:02:28.621Z,16.31
2016-04-14T07:03:47.842Z,16.49
2016-04-14T07:04:28.861Z,16.57
2016-04-14T07:06:41.971Z,16.06
2016-04-14T07:07:51.661Z,16.18
2016-04-14T07:08:38.954Z,16.29
2016-04-14T07:09:58.209Z,16.58
2016-04-14T07:11:13.253Z,17.19
2016-04-14T07:11:59.863Z,17.23
2016-04-14T07:13:22.349Z,17.31
2016-04-14T07:14:31.594Z,16.99
2016-04-14T07:15:06.081Z,17.17
2016-04-14T07:17:21.319Z,17.57
2016-04-14T07:18:23.757Z,17.31
2016-04-14T07:19:52.541Z,17.22
2016-04-14T07:20:30.794Z,17.13
2016-04-14T07:21:56.487Z,16.59
2016-04-14T07:23:02.645Z,16.25
2016-04-14T07:25:46.932Z,16.21
2016-04-14T07:26:12.325Z,16.25
2016-04-14T07:27:18.234Z,16.18
2016-04-14T07:28:02.111Z,16.03
2016-04-14T07:29:02.130Z,16.08
2016-04-14T07:30:14.898Z,15.73
2016-04-14T07:31:14.917Z,15.62
2016-04-14T07:32:21.403Z,15.33
2016-04-14T07:33:14.984Z,15.12
2016-04-14T07:34:33.550Z,14.87
2016-04-14T07:35:49.411Z,14.58
2016-04-14T07:36:30.227Z,14.53
2016-04-14T07:38:28.639Z,14.79
2016-04-14T07:39:01.048Z,14.77
2016-04-14T07:39:44.939Z,14.99
2016-04-14T07:41:10.647Z,15.11
2016-04-14T07:42:23.244Z,15.15
2016-04-14T07:42:54.558Z,15.37
2016-04-14T07:44:32.139Z,15.99
2016-04-14T07:45:16.080Z,16.36
2016-04-14T07:46:16.097Z,16.59
2016-04-14T07:47:22.350Z,16.82
2016-04-14T07:48:22.368Z,16.87
2016-04-14T07:49:35.324Z,17.12
2016-04-14T07:50:28.874Z,17.72
2016-04-14T07:51:36.798Z,17.97
2016-04-14T07:52:28.927Z,18.18
2016-04-14T07:53:16.241Z,18.27
2016-04-14T07:54:35.354Z,17.86
2016-04-14T07:55:48.216Z,17.87
2016-04-14T07:56:36.109Z,17.84
2016-04-14T07:57:16.315Z,17.88
2016-04-14T07:58:41.989Z,17.94
2016-04-14T07:59:51.601Z,16.99
2016-04-14T08:00:45.150Z,15.84
2016-04-14T08:02:25.984Z,15.81
2016-04-14T08:03:26.050Z,15.83
2016-04-14T08:04:32.334Z,15.69
2016-04-14T08:05:32.555Z,15.75
2016-04-14T08:06:26.323Z,15.66
2016-04-14T08:07:26.217Z,15.73
2016-04-14T08:08:26.299Z,15.22
2016-04-14T08:09:27.677Z,15.07
2016-04-14T08:10:27.668Z,15.23
2016-04-14T08:11:35.609Z,15.39
2016-04-14T08:12:38.970Z,15.9
2016-04-14T08:13:45.864Z,15.98
2016-04-14T08:14:51.961Z,16.05
2016-04-14T08:15:35.822Z,16.12
2016-04-14T08:16:55.125Z,16.59
2016-04-14T08:18:07.206Z,16.92
2016-04-14T08:19:03.833Z,17.22
2016-04-14T08:19:51.114Z,17.3
2016-04-14T08:21:10.447Z,17.38
2016-04-14T08:21:51.166Z,17.54
2016-04-14T08:24:07.002Z,17.32
2016-04-14T08:25:07.021Z,17.32
2016-04-14T08:26:19.773Z,17.31
2016-04-14T08:27:13.338Z,17.24
2016-04-14T08:28:26.310Z,16.92
2016-04-14T08:29:07.110Z,16.94
2016-04-14T08:30:32.207Z,16.86
2016-04-14T08:31:13.459Z,16.68
2016-04-14T08:32:07.212Z,16.68
2016-04-14T08:33:07.402Z,16.76
2016-04-14T08:34:07.248Z,16.69
2016-04-14T08:35:08.673Z,16.49
2016-04-14T08:36:07.878Z,16.66
2016-04-14T08:37:26.576Z,16.68
2016-04-14T08:38:20.095Z,16.66
2016-04-14T08:39:38.707Z,16.77
2016-04-14T08:40:07.382Z,16.83
2016-04-14T08:41:07.587Z,17.17
2016-04-14T08:42:07.434Z,17.31
2016-04-14T08:43:07.515Z,17.53
2016-04-14T08:44:07.486Z,17.65
2016-04-14T08:45:07.505Z,17.59
2016-04-14T08:46:08.147Z,17.57
2016-04-14T08:47:07.588Z,17.31
2016-04-14T08:48:07.591Z,17.23
2016-04-14T08:49:20.327Z,17.13
2016-04-14T08:50:07.627Z,17.07
2016-04-14T08:51:26.832Z,16.51
2016-04-14T08:52:07.710Z,16.17
2016-04-14T08:53:33.385Z,16.25
2016-04-14T08:54:20.482Z,16.32
2016-04-14T08:55:33.422Z,16.46
2016-04-14T08:56:07.815Z,16.59
2016-04-14T08:57:07.818Z,16.76
2016-04-14T08:58:07.835Z,16.79
2016-04-14T08:59:07.838Z,17.02
2016-04-14T09:00:20.716Z,17.1
2016-04-14T09:01:07.938Z,16.98
2016-04-14T09:02:27.129Z,16.69
2016-04-14T09:03:36.725Z,16.57
2016-04-14T09:04:11.040Z,16.55
2016-04-14T09:05:42.371Z,16.51
2016-04-14T09:06:26.233Z,16.74
2016-04-14T09:07:26.282Z,16.82
2016-04-14T09:08:26.301Z,16.72
2016-04-14T09:09:26.334Z,16.69
2016-04-14T09:10:39.103Z,16.58
2016-04-14T09:11:27.777Z,16.64
2016-04-14T09:12:26.389Z,16.82
2016-04-14T09:13:45.642Z,16.95
2016-04-14T09:14:32.582Z,16.94
2016-04-14T09:15:48.773Z,16.97
2016-04-14T09:16:30.197Z,17.01
2016-04-14T09:17:29.591Z,16.91
2016-04-14T09:18:30.219Z,16.98
2016-04-14T09:19:42.252Z,17.17
2016-04-14T09:20:42.458Z,17.32
2016-04-14T09:21:29.694Z,17.39
2016-04-14T09:22:29.744Z,17.39
2016-04-14T09:23:42.481Z,17.32
2016-04-14T09:24:29.812Z,17.35
2016-04-14T09:25:29.783Z,17.53
2016-04-14T09:26:42.536Z,17.72
2016-04-14T09:27:29.867Z,17.87
2016-04-14T09:28:49.089Z,17.93
2016-04-14T09:29:42.623Z,18.09
2016-04-14T09:30:29.907Z,18.05
2016-04-14T09:31:29.987Z,18.15
2016-04-14T09:32:29.974Z,18.23
2016-04-14T09:33:30.587Z,18.21
2016-04-14T09:34:30.026Z,18.15
2016-04-14T09:35:30.045Z,18.02
2016-04-14T09:36:30.048Z,17.97
2016-04-14T09:37:49.363Z,17.86
2016-04-14T09:38:30.101Z,17.91
2016-04-14T09:39:55.824Z,18.06
2016-04-14T09:40:36.528Z,18.08
2016-04-14T09:42:10.314Z,18.08
2016-04-14T09:42:42.298Z,18.26
2016-04-14T09:43:41.753Z,18.46
2016-04-14T09:44:54.459Z,18.64
2016-04-14T09:45:54.603Z,18.61
2016-04-14T09:47:07.452Z,18.27
2016-04-14T09:48:01.236Z,18.3
2016-04-14T09:49:44.458Z,18.03
2016-04-14T09:50:16.225Z,17.98
2016-04-14T09:51:16.135Z,17.97
2016-04-14T09:52:29.028Z,17.72
2016-04-14T09:53:16.343Z,17.53
2016-04-14T09:54:16.346Z,17.56
2016-04-14T09:55:22.629Z,17.5
2016-04-14T09:56:22.648Z,17.54
2016-04-14T09:57:16.401Z,17.76
2016-04-14T09:58:29.169Z,18.16
2016-04-14T09:59:29.187Z,18.27
2016-04-14T10:00:29.409Z,18.64
2016-04-14T10:01:35.709Z,18.94
2016-04-14T10:02:29.258Z,19.17
2016-04-14T10:03:42.854Z,19.12
2016-04-14T10:04:26.732Z,18.98
2016-04-14T10:05:45.985Z,19.11
2016-04-14T10:06:39.675Z,18.89
2016-04-14T10:07:27.116Z,18.88
2016-04-14T10:08:27.540Z,18.61
2016-04-14T10:09:39.809Z,18.55
2016-04-14T10:10:39.671Z,18.64
2016-04-14T10:11:46.204Z,18.83
2016-04-14T10:12:52.629Z,18.61
2016-04-14T10:13:52.647Z,18.48
2016-04-14T10:14:58.324Z,17.65
2016-04-14T10:16:27.170Z,17.09
2016-04-14T10:17:27.048Z,16.72
2016-04-14T10:20:08.072Z,15.94
2016-04-14T10:20:42.416Z,15.81
2016-04-14T10:22:13.765Z,15.73
2016-04-14T10:22:43.874Z,15.91
2016-04-14T10:23:42.533Z,15.99
2016-04-14T10:24:42.505Z,16.18
2016-04-14T10:25:43.944Z,16.17
2016-04-14T10:27:01.856Z,16.13
2016-04-14T10:27:45.621Z,16.16
2016-04-14T10:29:08.487Z,16.34
2016-04-14T10:29:55.380Z,16.39
2016-04-14T10:31:13.961Z,16.5
2016-04-14T10:31:55.432Z,16.39
2016-04-14T10:32:42.698Z,16.54
2016-04-14T10:33:42.748Z,16.61
2016-04-14T10:34:55.331Z,16.87
2016-04-14T10:35:49.096Z,17.05
2016-04-14T10:37:02.009Z,17.1
2016-04-14T10:37:43.290Z,17.12
2016-04-14T10:38:42.855Z,17.07
2016-04-14T10:39:42.812Z,17.02
2016-04-14T10:40:42.907Z,17.02
2016-04-14T10:41:42.942Z,16.97
2016-04-14T10:42:42.959Z,17.01
2016-04-14T10:43:42.962Z,17.19
2016-04-14T10:44:49.245Z,17.38
2016-04-14T10:45:43.687Z,17.37
2016-04-14T10:46:55.833Z,17.22
2016-04-14T10:47:44.504Z,17.13
2016-04-14T10:49:40.056Z,17.04
2016-04-14T10:49:52.619Z,17.07
2016-04-14T10:50:52.919Z,17.07
2016-04-14T10:51:59.189Z,17.17
2016-04-14T10:52:54.142Z,17.13
2016-04-14T10:53:53.301Z,16.98
2016-04-14T10:55:05.463Z,16.82
2016-04-14T10:56:05.513Z,16.55
2016-04-14T10:56:52.778Z,16.69
2016-04-14T10:57:52.813Z,16.83
2016-04-14T10:58:53.440Z,16.89
2016-04-14T11:00:12.054Z,17.05
2016-04-14T11:00:52.882Z,17.32
2016-04-14T11:01:53.010Z,17.39
2016-04-14T11:03:05.657Z,17.5
2016-04-14T11:03:53.563Z,17.59
2016-04-14T11:05:18.913Z,17.38
2016-04-14T11:05:53.585Z,17.35
2016-04-14T11:07:24.340Z,16.69
2016-04-14T11:08:12.279Z,16.61
2016-04-14T11:08:53.092Z,16.54
2016-04-14T11:10:18.770Z,16.58
2016-04-14T11:10:53.113Z,16.49
2016-04-14T11:12:24.462Z,16.68
2016-04-14T11:12:53.290Z,16.73
2016-04-14T11:13:53.198Z,16.68
2016-04-14T11:14:53.124Z,16.69
2016-04-14T11:15:53.220Z,16.79
2016-04-14T11:16:53.317Z,16.97
2016-04-14T11:17:53.288Z,17.05
2016-04-14T11:18:59.715Z,17.16
2016-04-14T11:19:59.608Z,17.17
2016-04-14T11:21:12.595Z,17.14
2016-04-14T11:21:56.488Z,17.17
2016-04-14T11:23:22.194Z,17.02
2016-04-14T11:24:03.478Z,16.97
2016-04-14T11:25:19.669Z,17.05
2016-04-14T11:26:00.484Z,16.87
2016-04-14T11:27:26.268Z,17.05
2016-04-14T11:28:07.630Z,16.84
2016-04-14T11:29:35.835Z,16.84
2016-04-14T11:30:14.198Z,16.79
2016-04-14T11:31:45.544Z,16.95
2016-04-14T11:32:29.532Z,16.95
2016-04-14T11:33:29.441Z,16.76
2016-04-14T11:34:29.489Z,16.69
2016-04-14T11:35:35.773Z,16.77
2016-04-14T11:36:35.807Z,16.59
2016-04-14T11:37:29.559Z,16.65
2016-04-14T11:38:48.812Z,16.64
2016-04-14T11:39:35.877Z,16.62
2016-04-14T11:40:32.864Z,16.5
2016-04-14T11:41:45.664Z,16.31
2016-04-14T11:42:58.608Z,16.26
2016-04-14T11:43:32.936Z,16.39
2016-04-14T11:45:04.972Z,16.21
2016-04-14T11:45:48.878Z,16.22
2016-04-14T11:47:08.086Z,16.36
2016-04-14T11:47:52.008Z,16.43
2016-04-14T11:48:52.011Z,16.46
2016-04-14T11:49:51.982Z,16.55
2016-04-14T11:50:52.052Z,16.59
2016-04-14T11:51:52.696Z,16.58
2016-04-14T11:52:52.715Z,16.5
2016-04-14T11:54:04.954Z,16.29
2016-04-14T11:54:51.970Z,16.25
2016-04-14T11:56:11.412Z,16.26
2016-04-14T11:56:52.193Z,16.44
2016-04-14T11:58:17.886Z,16.51
2016-04-14T11:59:01.014Z,16.57
2016-04-14T12:00:01.892Z,16.58
2016-04-14T12:01:07.957Z,16.59
2016-04-14T12:02:03.257Z,16.74
2016-04-14T12:03:14.603Z,16.89
2016-04-14T12:04:01.872Z,16.73
2016-04-14T12:05:15.264Z,16.61
2016-04-14T12:06:01.923Z,16.34
2016-04-14T12:07:02.567Z,16.17
2016-04-14T12:08:08.241Z,16.06
2016-04-14T12:09:14.744Z,16.05
2016-04-14T12:10:02.012Z,16.16
2016-04-14T12:11:27.719Z,16.26
2016-04-14T12:12:13.174Z,16.39
2016-04-14T12:13:13.067Z,16.39
2016-04-14T12:14:25.788Z,16.46
2016-04-14T12:15:13.104Z,16.59
2016-04-14T12:16:13.107Z,16.58
2016-04-14T12:17:13.141Z,16.64
2016-04-14T12:18:38.863Z,16.72
2016-04-14T12:19:13.818Z,16.86
2016-04-14T12:21:13.838Z,16.68
2016-04-14T12:22:13.263Z,16.62
2016-04-14T12:23:26.063Z,16.57
2016-04-14T12:24:13.893Z,16.43
2016-04-14T12:25:13.318Z,16.25
2016-04-14T12:26:13.368Z,16.28
2016-04-14T12:27:13.839Z,16.24
2016-04-14T12:28:19.687Z,16.17
2016-04-14T12:29:26.173Z,16.18
2016-04-14T12:30:13.426Z,16
2016-04-14T12:31:13.459Z,16.08
2016-04-14T12:32:13.728Z,16.17
2016-04-14T12:33:26.246Z,16.24
2016-04-14T12:34:19.795Z,16.24
2016-04-14T12:35:39.251Z,16.21
2016-04-14T12:36:26.363Z,16.18
2016-04-14T12:37:44.913Z,16.17
2016-04-14T12:38:13.713Z,16.25
2016-04-14T12:39:13.653Z,16.21
2016-04-14T12:40:13.687Z,16.21
2016-04-14T12:41:13.892Z,16.17
2016-04-14T12:42:13.724Z,16.22
2016-04-14T12:43:13.741Z,16.24
2016-04-14T12:44:13.760Z,16.21
2016-04-14T12:45:13.794Z,16.24
2016-04-14T12:46:26.547Z,16.21
2016-04-14T12:47:13.878Z,16.06
2016-04-14T12:48:33.068Z,15.96
2016-04-14T12:49:13.883Z,15.94
2016-04-14T12:50:39.698Z,15.91
2016-04-14T12:51:20.201Z,15.9
2016-04-14T12:52:13.953Z,15.83
2016-04-14T12:53:33.190Z,15.75
2016-04-14T12:54:26.834Z,15.75
2016-04-14T12:55:39.680Z,15.81
2016-04-14T12:56:33.215Z,15.8
2016-04-14T12:57:39.733Z,15.72
2016-04-14T12:58:14.282Z,15.73
2016-04-14T12:59:45.410Z,15.52
2016-04-14T13:00:14.131Z,15.54
2016-04-14T13:01:14.181Z,15.7
2016-04-14T13:02:14.855Z,15.65
2016-04-14T13:03:14.217Z,15.69
2016-04-14T13:04:26.970Z,15.62
2016-04-14T13:05:14.253Z,15.62
2016-04-14T13:06:14.273Z,15.51
2016-04-14T13:07:14.400Z,15.55
2016-04-14T13:08:14.309Z,15.62
2016-04-14T13:09:15.111Z,15.72
2016-04-14T13:10:14.958Z,15.73
2016-04-14T13:11:14.518Z,15.78
2016-04-14T13:12:14.803Z,15.8
2016-04-14T13:13:14.430Z,15.99
2016-04-14T13:14:27.183Z,15.91
2016-04-14T13:15:14.467Z,15.88
2016-04-14T13:16:33.703Z,15.98
2016-04-14T13:17:27.253Z,15.98
2016-04-14T13:19:44.727Z,16.05
2016-04-14T13:20:43.324Z,16.05
2016-04-14T13:21:43.951Z,16.12
2016-04-14T13:23:02.582Z,16.09
2016-04-14T13:23:44.800Z,16.12
2016-04-14T13:25:09.088Z,16.06
2016-04-14T13:25:43.447Z,15.99
2016-04-14T13:27:09.139Z,16.24
2016-04-14T13:27:56.218Z,16.21
2016-04-14T13:29:58.694Z,16.06
2016-04-14T13:30:58.712Z,15.96
2016-04-14T13:31:58.747Z,16
2016-04-14T13:33:12.077Z,15.96
2016-04-14T13:34:05.049Z,15.8
2016-04-14T13:35:24.552Z,15.72
2016-04-14T13:36:11.570Z,15.76
2016-04-14T13:37:30.166Z,15.76